Time;durP1;ratioP1;P1;durP2;ratioP2;P2;SDS_P1;SDS_P2;PMS_P1;PMS_P2;Temp;Humidity;BMP_temperature;BMP_pressure;BME280_temperature;BME280_humidity;BME280_pressure;Samples;Min_cycle;Max_cycle;Signal;HPM_P1;HPM_P2
2022/07/06 00:00:02;;;;;;;1.15;0.90;;;22.40;99.90;;;;;;4983728;28;20774;-77
2022/07/06 00:02:29;;;;;;;0.93;0.90;;;22.30;99.90;;;;;;4979905;28;20550;-78
2022/07/06 00:04:57;;;;;;;1.30;1.17;;;22.30;99.90;;;;;;4980274;28;20262;-78
2022/07/06 00:07:25;;;;;;;0.90;0.90;;;22.20;99.90;;;;;;4980073;28;20213;-78
2022/07/06 00:09:52;;;;;;;0.82;0.77;;;22.10;99.90;;;;;;4978189;28;20222;-77
2022/07/06 00:12:19;;;;;;;0.75;0.75;;;22.00;99.90;;;;;;4980874;28;20216;-77
2022/07/06 00:14:47;;;;;;;0.80;0.80;;;22.00;99.90;;;;;;4986737;28;20304;-77
2022/07/06 00:17:15;;;;;;;0.70;0.70;;;22.00;99.90;;;;;;4988955;28;20220;-77
2022/07/06 00:19:43;;;;;;;0.70;0.70;;;22.00;99.90;;;;;;4986733;28;20312;-77
2022/07/06 00:22:10;;;;;;;1.00;0.90;;;21.90;99.90;;;;;;5003164;28;20236;-77
2022/07/06 00:24:37;;;;;;;0.88;0.70;;;21.90;99.90;;;;;;4987748;28;20300;-78
2022/07/06 00:27:05;;;;;;;0.85;0.85;;;21.90;99.90;;;;;;4984926;28;20227;-78
2022/07/06 00:29:32;;;;;;;0.80;0.80;;;21.80;99.90;;;;;;4988447;28;20231;-77
2022/07/06 00:32:00;;;;;;;0.93;0.75;;;21.80;99.90;;;;;;4968929;28;20321;-77
2022/07/06 00:34:28;;;;;;;0.70;0.70;;;21.80;99.90;;;;;;4970113;28;20189;-77
2022/07/06 00:36:56;;;;;;;1.05;0.63;;;21.70;99.90;;;;;;4984508;28;20782;-77
2022/07/06 00:39:28;;;;;;;0.85;0.85;;;21.70;99.90;;;;;;4979883;28;20275;-78
2022/07/06 00:41:56;;;;;;;1.00;0.90;;;21.70;99.90;;;;;;4982219;28;20759;-76
2022/07/06 00:44:23;;;;;;;0.90;0.80;;;21.70;99.90;;;;;;4986899;28;20236;-78
2022/07/06 00:46:51;;;;;;;0.80;0.80;;;21.60;99.90;;;;;;4987147;28;20221;-78
2022/07/06 00:52:01;;;;;;;1.15;0.98;;;21.50;99.90;;;;;;4977237;28;20217;-77
2022/07/06 00:54:31;;;;;;;0.80;0.80;;;21.50;99.90;;;;;;4982323;28;20201;-78
2022/07/06 00:56:59;;;;;;;1.08;1.00;;;21.30;99.90;;;;;;4985291;28;20459;-77
2022/07/06 00:59:28;;;;;;;0.80;0.80;;;21.30;99.90;;;;;;4980925;28;20225;-78
2022/07/06 01:01:55;;;;;;;0.80;0.80;;;21.30;99.90;;;;;;4961339;28;20229;-77
2022/07/06 01:04:22;;;;;;;0.90;0.90;;;21.30;99.90;;;;;;4960478;28;20623;-78
2022/07/06 01:06:50;;;;;;;0.80;0.80;;;21.20;99.90;;;;;;4979525;28;20220;-78
2022/07/06 01:09:19;;;;;;;0.77;0.77;;;21.20;99.90;;;;;;4980824;28;20692;-78
2022/07/06 01:11:47;;;;;;;1.50;0.90;;;21.20;99.90;;;;;;4978099;28;20552;-77
2022/07/06 01:14:17;;;;;;;0.73;0.73;;;21.20;99.90;;;;;;5000944;28;20209;-78
2022/07/06 01:16:45;;;;;;;1.80;0.68;;;21.30;99.90;;;;;;4985983;28;20232;-78
2022/07/06 01:19:12;;;;;;;0.80;0.80;;;21.30;99.90;;;;;;4983545;28;20466;-78
2022/07/06 01:21:40;;;;;;;0.70;0.70;;;21.30;99.90;;;;;;4981955;28;20224;-77
2022/07/06 01:24:08;;;;;;;0.70;0.70;;;21.30;99.90;;;;;;4981646;28;20217;-77
2022/07/06 01:26:35;;;;;;;0.80;0.80;;;21.30;99.90;;;;;;4986768;28;20225;-78
2022/07/06 01:29:02;;;;;;;0.68;0.68;;;21.30;99.90;;;;;;4983394;28;20192;-77
2022/07/06 01:31:30;;;;;;;0.75;0.75;;;21.30;99.90;;;;;;4986145;28;20216;-77
2022/07/06 01:33:58;;;;;;;0.80;0.80;;;21.30;99.90;;;;;;4987045;28;20209;-77
2022/07/06 01:36:25;;;;;;;0.70;0.70;;;21.30;99.90;;;;;;4987066;28;20627;-78
2022/07/06 01:38:57;;;;;;;0.85;0.85;;;21.20;99.90;;;;;;4986930;28;20815;-78
2022/07/06 01:41:25;;;;;;;1.15;0.75;;;21.20;99.90;;;;;;4983085;28;20711;-77
2022/07/06 01:43:52;;;;;;;1.30;0.80;;;21.10;99.90;;;;;;4985902;28;20197;-77
2022/07/06 01:46:20;;;;;;;1.23;0.95;;;21.10;99.90;;;;;;4986181;28;20232;-76
2022/07/06 01:48:48;;;;;;;0.85;0.85;;;21.10;99.90;;;;;;4995280;28;20255;-78
2022/07/06 01:51:15;;;;;;;1.40;0.80;;;21.10;99.90;;;;;;4987563;28;20232;-77
2022/07/06 01:53:43;;;;;;;0.80;0.80;;;21.10;99.90;;;;;;4986918;28;20559;-78
2022/07/06 01:56:12;;;;;;;1.15;0.98;;;21.00;99.90;;;;;;4986168;28;20598;-77
2022/07/06 01:58:40;;;;;;;0.90;0.90;;;21.00;99.90;;;;;;4988495;28;20207;-79
2022/07/06 02:01:11;;;;;;;0.88;0.82;;;21.00;99.90;;;;;;4986900;28;20220;-78
2022/07/06 02:03:39;;;;;;;1.08;0.80;;;21.00;99.90;;;;;;4983454;28;20201;-79
2022/07/06 02:06:06;;;;;;;0.80;0.80;;;21.00;99.90;;;;;;4999174;28;20235;-78
2022/07/06 02:08:35;;;;;;;0.93;0.80;;;20.90;99.90;;;;;;4984728;28;20423;-77
2022/07/06 02:11:03;;;;;;;0.90;0.90;;;20.90;99.90;;;;;;4984431;28;20242;-78
2022/07/06 02:13:31;;;;;;;1.05;0.95;;;20.80;99.90;;;;;;4986186;28;20207;-76
2022/07/06 02:15:58;;;;;;;1.10;1.00;;;20.70;99.90;;;;;;4984456;28;20232;-78
2022/07/06 02:18:26;;;;;;;1.00;1.00;;;20.60;99.90;;;;;;4985740;28;20210;-76
2022/07/06 02:20:53;;;;;;;0.82;0.82;;;20.60;99.90;;;;;;4983810;28;20229;-78
2022/07/06 02:23:20;;;;;;;0.70;0.70;;;20.60;99.90;;;;;;4981382;28;20210;-77
2022/07/06 02:25:48;;;;;;;0.82;0.82;;;20.50;99.90;;;;;;4990042;28;20224;-77
2022/07/06 02:28:15;;;;;;;0.80;0.80;;;20.50;99.90;;;;;;4991297;28;20224;-77
2022/07/06 02:30:44;;;;;;;1.00;1.00;;;20.50;99.90;;;;;;5018427;22;20313;-75
2022/07/06 02:33:11;;;;;;;0.98;0.98;;;20.50;99.90;;;;;;5036219;28;20207;-76
2022/07/06 02:35:41;;;;;;;1.00;1.00;;;20.50;99.90;;;;;;5024054;28;20214;-77
2022/07/06 02:38:09;;;;;;;0.80;0.80;;;20.50;99.90;;;;;;5034797;28;20196;-78
2022/07/06 02:40:36;;;;;;;0.75;0.75;;;20.50;99.90;;;;;;5031878;28;20219;-76
2022/07/06 02:43:03;;;;;;;0.63;0.63;;;20.50;99.90;;;;;;5031509;28;20199;-76
2022/07/06 02:45:31;;;;;;;1.33;0.88;;;20.60;99.90;;;;;;5026837;28;20237;-77
2022/07/06 02:47:59;;;;;;;0.80;0.80;;;20.60;99.90;;;;;;5031422;28;20223;-76
2022/07/06 02:50:27;;;;;;;0.80;0.80;;;20.50;99.90;;;;;;5028860;28;20231;-76
2022/07/06 02:52:54;;;;;;;0.80;0.80;;;20.50;99.90;;;;;;5027486;28;20200;-76
2022/07/06 02:55:22;;;;;;;0.80;0.80;;;20.50;99.90;;;;;;5034749;28;20253;-76
2022/07/06 02:57:49;;;;;;;0.70;0.70;;;20.40;99.90;;;;;;5036343;28;20191;-74
2022/07/06 03:00:17;;;;;;;0.93;0.93;;;20.40;99.90;;;;;;5030457;28;20227;-74
2022/07/06 03:02:44;;;;;;;1.10;1.00;;;20.30;99.90;;;;;;5027086;28;20265;-73
2022/07/06 03:05:13;;;;;;;0.80;0.80;;;20.30;99.90;;;;;;5030801;28;20571;-75
2022/07/06 03:07:40;;;;;;;1.13;1.00;;;20.30;99.90;;;;;;5025454;28;20528;-74
2022/07/06 03:10:08;;;;;;;1.00;0.85;;;20.20;99.90;;;;;;5027957;28;20694;-73
2022/07/06 03:12:35;;;;;;;1.10;1.00;;;20.20;99.90;;;;;;5029172;28;20658;-74
2022/07/06 03:15:02;;;;;;;0.77;0.77;;;20.20;99.90;;;;;;5028800;28;20208;-74
2022/07/06 03:17:29;;;;;;;1.38;1.25;;;20.10;99.90;;;;;;5028704;28;20561;-75
2022/07/06 03:19:56;;;;;;;1.00;1.00;;;20.00;99.90;;;;;;5031886;28;20199;-75
2022/07/06 03:22:25;;;;;;;0.93;0.90;;;20.00;99.90;;;;;;5032616;28;20206;-75
2022/07/06 03:24:52;;;;;;;1.20;1.10;;;20.00;99.90;;;;;;5028990;28;20219;-76
2022/07/06 03:27:19;;;;;;;0.82;0.82;;;20.00;99.90;;;;;;5028493;28;20318;-75
2022/07/06 03:29:46;;;;;;;1.10;0.98;;;19.90;99.90;;;;;;5020912;28;20204;-74
2022/07/06 03:32:13;;;;;;;1.10;1.00;;;19.90;99.90;;;;;;5023243;28;20590;-76
2022/07/06 03:34:41;;;;;;;0.90;0.90;;;19.90;99.90;;;;;;5034747;28;20589;-74
2022/07/06 03:37:08;;;;;;;0.98;0.98;;;19.90;99.90;;;;;;5027732;28;20225;-75
2022/07/06 03:39:36;;;;;;;1.27;1.27;;;19.80;99.90;;;;;;5031295;28;20287;-75
2022/07/06 03:42:04;;;;;;;0.95;0.95;;;19.80;99.90;;;;;;5022702;28;20226;-74
2022/07/06 03:44:31;;;;;;;1.20;1.10;;;19.80;99.90;;;;;;5026559;28;20199;-75
2022/07/06 03:46:58;;;;;;;1.02;1.02;;;19.80;99.90;;;;;;5022207;28;20694;-74
2022/07/06 03:49:27;;;;;;;1.10;1.10;;;19.70;99.90;;;;;;5035185;28;20201;-75
2022/07/06 03:51:54;;;;;;;1.00;1.00;;;19.70;99.90;;;;;;5036877;28;20709;-74
2022/07/06 03:54:21;;;;;;;1.20;0.88;;;19.70;99.90;;;;;;5049731;28;20199;-76
2022/07/06 03:56:50;;;;;;;1.02;1.02;;;19.70;99.90;;;;;;5035149;28;20211;-76
2022/07/06 03:59:17;;;;;;;1.13;1.10;;;19.70;99.90;;;;;;5036000;28;20208;-75
2022/07/06 04:01:44;;;;;;;0.80;0.77;;;19.70;99.90;;;;;;5030292;28;20310;-74
2022/07/06 04:04:11;;;;;;;0.98;0.98;;;19.70;99.90;;;;;;5039667;28;20294;-75
2022/07/06 04:06:39;;;;;;;0.82;0.82;;;19.70;99.90;;;;;;5036899;28;20219;-76
2022/07/06 04:09:06;;;;;;;0.77;0.77;;;19.80;99.90;;;;;;5032130;28;20207;-75
2022/07/06 04:11:34;;;;;;;0.77;0.77;;;19.80;99.90;;;;;;5035023;28;20226;-75
2022/07/06 04:14:02;;;;;;;1.23;1.00;;;19.80;99.90;;;;;;5038204;28;20233;-75
2022/07/06 04:16:29;;;;;;;0.90;0.90;;;20.00;99.90;;;;;;5042664;28;20222;-76
2022/07/06 04:18:56;;;;;;;1.00;1.00;;;20.00;99.90;;;;;;5033023;28;20666;-76
2022/07/06 04:21:24;;;;;;;1.05;0.98;;;20.10;99.90;;;;;;5045628;28;20685;-76
2022/07/06 04:23:51;;;;;;;0.80;0.80;;;20.10;99.90;;;;;;5038329;28;20202;-75
2022/07/06 04:26:18;;;;;;;0.88;0.88;;;20.20;99.90;;;;;;5043745;28;20219;-75
2022/07/06 04:28:45;;;;;;;1.25;1.15;;;20.30;99.90;;;;;;5042234;28;20222;-76
2022/07/06 04:31:15;;;;;;;1.02;1.02;;;20.40;99.90;;;;;;5044966;28;20245;-75
2022/07/06 04:33:42;;;;;;;1.10;1.00;;;20.50;99.90;;;;;;5041853;28;20298;-76
2022/07/06 04:36:10;;;;;;;0.93;0.93;;;20.50;99.90;;;;;;5044614;28;20705;-75
2022/07/06 04:38:37;;;;;;;1.10;1.00;;;20.60;99.90;;;;;;5037908;28;20218;-75
2022/07/06 04:41:04;;;;;;;1.25;1.00;;;20.70;99.90;;;;;;5037493;28;20265;-75
2022/07/06 04:43:31;;;;;;;3.30;1.05;;;20.80;99.90;;;;;;5041544;28;20183;-74
2022/07/06 04:46:00;;;;;;;0.93;0.93;;;20.90;99.90;;;;;;5037354;28;20215;-75
2022/07/06 04:48:29;;;;;;;1.38;1.27;;;21.00;99.90;;;;;;5036836;28;20227;-76
2022/07/06 04:50:56;;;;;;;1.23;0.95;;;21.10;99.90;;;;;;5036914;28;20226;-75
2022/07/06 04:53:23;;;;;;;1.00;1.00;;;21.20;99.90;;;;;;5045186;28;20199;-75
2022/07/06 04:55:50;;;;;;;1.00;1.00;;;21.30;99.90;;;;;;5036339;28;20218;-76
2022/07/06 04:58:17;;;;;;;1.15;1.05;;;21.30;99.90;;;;;;5041218;28;20198;-75
2022/07/06 05:00:45;;;;;;;1.08;0.90;;;21.50;99.90;;;;;;5035777;28;20220;-76
2022/07/06 05:03:12;;;;;;;1.50;1.08;;;21.50;99.90;;;;;;5042349;28;20203;-76
2022/07/06 05:05:40;;;;;;;2.92;1.63;;;21.50;99.90;;;;;;5040732;28;20221;-76
2022/07/06 05:08:07;;;;;;;1.23;1.13;;;21.60;99.90;;;;;;5038130;28;20230;-76
2022/07/06 05:10:35;;;;;;;1.42;1.33;;;21.50;99.90;;;;;;5034283;28;20226;-75
2022/07/06 05:13:02;;;;;;;1.33;1.23;;;21.50;99.90;;;;;;5029814;28;20279;-75
2022/07/06 05:15:30;;;;;;;1.60;1.50;;;21.50;99.90;;;;;;5027714;28;20725;-76
2022/07/06 05:17:57;;;;;;;1.77;1.30;;;21.60;99.90;;;;;;5032647;28;20302;-74
2022/07/06 05:20:24;;;;;;;2.00;1.20;;;21.70;99.90;;;;;;5031085;28;20583;-75
2022/07/06 05:22:53;;;;;;;1.23;1.23;;;21.70;99.90;;;;;;5034434;28;20196;-75
2022/07/06 05:25:21;;;;;;;4.63;1.60;;;21.70;99.90;;;;;;5032335;28;20710;-76
2022/07/06 05:27:48;;;;;;;2.38;1.60;;;21.80;99.90;;;;;;5026744;28;20270;-75
2022/07/06 05:30:16;;;;;;;1.75;1.40;;;21.70;99.90;;;;;;5032967;28;20243;-75
2022/07/06 05:32:43;;;;;;;1.70;1.48;;;21.70;99.90;;;;;;5033306;28;20204;-75
2022/07/06 05:35:10;;;;;;;1.98;1.30;;;21.70;99.90;;;;;;5031133;28;20223;-74
2022/07/06 05:37:37;;;;;;;1.60;1.50;;;21.80;99.90;;;;;;5025644;28;20203;-76
2022/07/06 05:40:07;;;;;;;2.85;1.92;;;21.90;99.90;;;;;;5034696;28;20222;-76
2022/07/06 05:42:34;;;;;;;2.63;1.63;;;21.90;99.90;;;;;;5029956;28;20210;-76
2022/07/06 05:45:03;;;;;;;1.40;1.30;;;21.80;99.90;;;;;;5028371;28;20580;-75
2022/07/06 05:50:15;;;;;;;2.25;1.20;;;21.90;99.90;;;;;;5024710;28;20230;-74
2022/07/06 05:52:43;;;;;;;1.52;1.33;;;22.00;99.90;;;;;;5030993;28;20211;-76
2022/07/06 05:55:12;;;;;;;1.73;1.30;;;22.10;99.90;;;;;;5030444;28;20219;-76
2022/07/06 05:57:40;;;;;;;3.08;1.67;;;22.30;99.90;;;;;;5023610;28;20200;-75
2022/07/06 06:00:09;;;;;;;1.63;1.50;;;22.40;99.90;;;;;;5034900;28;20223;-75
2022/07/06 06:02:40;;;;;;;1.83;1.30;;;22.50;99.90;;;;;;5034056;28;20667;-75
2022/07/06 06:05:09;;;;;;;1.20;1.20;;;22.60;99.90;;;;;;5033556;28;20223;-75
2022/07/06 06:07:36;;;;;;;1.20;1.08;;;22.80;99.90;;;;;;5037819;28;20617;-76
2022/07/06 06:10:06;;;;;;;1.10;1.10;;;23.00;99.90;;;;;;5034002;28;20231;-75
2022/07/06 06:12:34;;;;;;;1.50;1.40;;;23.10;99.90;;;;;;5029604;28;20206;-75
2022/07/06 06:15:02;;;;;;;1.50;1.40;;;23.20;99.90;;;;;;5035591;28;20298;-76
2022/07/06 06:17:29;;;;;;;1.42;1.30;;;23.20;99.90;;;;;;5031242;28;20244;-74
2022/07/06 06:19:56;;;;;;;1.63;1.30;;;23.10;99.90;;;;;;5042394;28;20290;-75
2022/07/06 06:22:23;;;;;;;1.45;1.35;;;23.10;99.90;;;;;;5042591;28;20295;-76
2022/07/06 06:24:51;;;;;;;2.60;1.83;;;23.10;99.90;;;;;;5031731;28;20202;-77
2022/07/06 06:27:18;;;;;;;2.88;1.85;;;23.20;99.90;;;;;;5031367;28;20203;-75
2022/07/06 06:29:47;;;;;;;1.35;1.10;;;23.20;99.90;;;;;;5041506;28;20564;-75
2022/07/06 06:32:14;;;;;;;1.50;1.40;;;23.20;99.90;;;;;;5020748;28;20231;-76
2022/07/06 06:34:42;;;;;;;4.03;1.63;;;23.20;99.90;;;;;;5032604;28;20282;-76
2022/07/06 06:37:09;;;;;;;2.55;2.03;;;23.20;99.90;;;;;;5030326;28;20242;-76
2022/07/06 06:39:36;;;;;;;4.10;1.50;;;23.30;99.90;;;;;;5046544;28;20195;-76
2022/07/06 06:42:04;;;;;;;2.15;1.77;;;23.40;99.90;;;;;;5053258;28;20313;-75
2022/07/06 06:44:31;;;;;;;2.63;1.63;;;23.40;99.90;;;;;;5036710;28;20680;-75
2022/07/06 06:47:00;;;;;;;1.50;1.40;;;23.60;99.90;;;;;;5026176;28;20640;-75
2022/07/06 06:49:27;;;;;;;1.50;1.40;;;23.70;99.90;;;;;;5038051;28;20303;-76
2022/07/06 06:51:54;;;;;;;1.60;1.50;;;24.00;99.90;;;;;;5050672;28;20301;-75
2022/07/06 06:54:21;;;;;;;3.05;1.33;;;24.20;99.90;;;;;;5044676;28;20291;-75
2022/07/06 06:56:48;;;;;;;1.73;1.30;;;24.60;99.90;;;;;;5046692;28;20221;-77
2022/07/06 06:59:16;;;;;;;1.33;1.23;;;24.80;99.90;;;;;;5031345;28;20203;-76
2022/07/06 07:01:43;;;;;;;1.48;1.33;;;25.10;99.90;;;;;;5037653;28;20251;-75
2022/07/06 07:04:12;;;;;;;2.00;1.60;;;25.30;99.90;;;;;;5033352;28;20286;-76
2022/07/06 07:06:39;;;;;;;2.72;1.80;;;25.30;99.90;;;;;;5030081;28;20604;-77
2022/07/06 07:09:06;;;;;;;1.50;1.40;;;25.00;99.90;;;;;;5036045;28;20239;-76
2022/07/06 07:11:33;;;;;;;1.60;1.50;;;24.80;99.90;;;;;;5036694;28;20254;-76
2022/07/06 07:14:01;;;;;;;3.08;1.70;;;24.80;99.90;;;;;;5023591;28;20268;-75
2022/07/06 07:16:28;;;;;;;2.70;1.50;;;24.80;99.90;;;;;;5029842;28;20262;-75
2022/07/06 07:18:55;;;;;;;1.33;1.20;;;24.80;99.90;;;;;;5033023;28;20191;-76
2022/07/06 07:21:24;;;;;;;2.50;1.58;;;24.80;99.90;;;;;;5031889;28;20595;-75
2022/07/06 07:23:51;;;;;;;1.52;1.42;;;24.90;99.90;;;;;;5032478;28;20192;-76
2022/07/06 07:26:19;;;;;;;2.15;1.48;;;25.00;99.90;;;;;;5041837;28;20218;-76
2022/07/06 07:28:46;;;;;;;2.05;1.60;;;25.20;99.90;;;;;;5027029;28;20706;-76
2022/07/06 07:31:13;;;;;;;2.17;1.60;;;25.20;99.90;;;;;;5029330;28;20224;-75
2022/07/06 07:33:41;;;;;;;2.22;1.58;;;25.20;99.90;;;;;;5030873;28;20200;-75
2022/07/06 07:36:08;;;;;;;2.75;1.50;;;25.20;99.90;;;;;;5029759;28;20590;-76
2022/07/06 07:38:37;;;;;;;1.33;1.15;;;25.20;99.90;;;;;;5030043;28;20199;-75
2022/07/06 07:41:06;;;;;;;1.88;1.50;;;25.20;99.90;;;;;;5029156;28;20601;-76
2022/07/06 07:43:33;;;;;;;3.25;1.45;;;25.30;99.90;;;;;;5027380;28;20595;-77
2022/07/06 07:46:00;;;;;;;3.13;1.58;;;25.40;99.90;;;;;;5025995;28;20302;-76
2022/07/06 07:48:27;;;;;;;1.42;1.33;;;25.60;99.90;;;;;;5028877;28;20223;-76
2022/07/06 07:50:55;;;;;;;1.50;1.30;;;25.70;99.90;;;;;;5034920;28;20234;-76
2022/07/06 07:53:22;;;;;;;3.03;1.60;;;26.00;99.90;;;;;;5025104;28;20206;-77
2022/07/06 07:55:50;;;;;;;1.85;1.55;;;26.10;99.90;;;;;;5032999;28;20609;-75
2022/07/06 07:58:18;;;;;;;1.90;1.60;;;26.10;99.90;;;;;;5023701;28;20583;-75
2022/07/06 08:00:45;;;;;;;1.30;1.20;;;26.00;99.90;;;;;;5018977;28;20219;-76
2022/07/06 08:03:13;;;;;;;1.30;1.20;;;26.00;99.90;;;;;;5024246;28;20206;-77
2022/07/06 08:05:40;;;;;;;1.55;1.45;;;26.40;99.90;;;;;;5026809;28;20955;-75
2022/07/06 08:08:07;;;;;;;3.00;1.40;;;26.60;99.90;;;;;;5031214;28;20226;-76
2022/07/06 08:10:34;;;;;;;1.77;1.30;;;26.60;99.90;;;;;;5030928;28;20261;-75
2022/07/06 08:13:03;;;;;;;1.70;1.60;;;26.60;99.90;;;;;;5036217;28;20294;-77
2022/07/06 08:15:31;;;;;;;1.50;1.40;;;26.70;99.90;;;;;;5026123;28;20224;-75
2022/07/06 08:17:58;;;;;;;1.60;1.50;;;26.70;99.90;;;;;;5024340;28;20212;-75
2022/07/06 08:20:25;;;;;;;1.50;1.40;;;27.00;99.90;;;;;;5019539;28;20235;-77
2022/07/06 08:22:52;;;;;;;1.45;1.30;;;27.00;99.90;;;;;;5024549;28;20303;-75
2022/07/06 08:25:20;;;;;;;1.25;1.13;;;27.00;99.90;;;;;;5027959;28;20703;-76
2022/07/06 08:27:47;;;;;;;1.73;1.63;;;27.00;99.90;;;;;;5028192;28;20211;-77
2022/07/06 08:30:16;;;;;;;1.88;1.40;;;27.00;99.90;;;;;;5019661;28;20769;-76
2022/07/06 08:32:43;;;;;;;2.05;1.20;;;27.20;99.90;;;;;;5039512;23;20243;-76
2022/07/06 08:35:11;;;;;;;1.58;1.15;;;27.30;99.90;;;;;;5009330;28;20228;-76
2022/07/06 08:37:38;;;;;;;1.38;1.27;;;27.30;99.90;;;;;;5014198;28;20673;-76
2022/07/06 08:40:07;;;;;;;1.92;1.38;;;27.30;99.90;;;;;;5018669;28;20907;-77
2022/07/06 08:42:35;;;;;;;1.08;1.08;;;27.50;99.90;;;;;;5014933;28;20219;-76
2022/07/06 08:45:05;;;;;;;2.65;1.30;;;27.60;99.90;;;;;;5017568;28;20200;-75
2022/07/06 08:47:37;;;;;;;1.75;1.27;;;27.50;99.90;;;;;;5011462;28;20207;-76
2022/07/06 08:50:05;;;;;;;1.67;0.95;;;27.60;99.90;;;;;;5011034;28;20255;-74
2022/07/06 08:52:33;;;;;;;1.42;1.20;;;27.80;99.90;;;;;;5013989;28;21017;-76
2022/07/06 08:55:01;;;;;;;1.10;1.00;;;27.70;99.90;;;;;;5016929;28;20202;-77
2022/07/06 08:57:29;;;;;;;1.83;1.20;;;27.70;99.90;;;;;;5019443;28;20277;-77
2022/07/06 08:59:56;;;;;;;1.15;1.05;;;27.80;99.90;;;;;;5016241;28;20196;-77
2022/07/06 09:02:26;;;;;;;1.02;1.00;;;27.90;99.90;;;;;;5011563;28;20233;-77
2022/07/06 09:04:58;;;;;;;1.30;1.10;;;28.00;99.90;;;;;;5015761;28;20192;-77
2022/07/06 09:07:27;;;;;;;1.10;1.00;;;28.20;99.90;;;;;;5013403;28;20717;-76
2022/07/06 09:09:56;;;;;;;1.13;1.02;;;28.40;99.90;;;;;;5017376;28;21264;-75
2022/07/06 09:12:23;;;;;;;1.30;1.20;;;28.50;99.90;;;;;;5016597;28;20638;-77
2022/07/06 09:14:51;;;;;;;1.05;1.00;;;28.50;99.90;;;;;;5014426;28;20241;-77
2022/07/06 09:17:18;;;;;;;2.22;1.20;;;28.40;99.90;;;;;;5015114;28;20195;-76
2022/07/06 09:19:46;;;;;;;1.48;1.10;;;28.30;99.90;;;;;;5018964;28;20203;-76
2022/07/06 09:22:26;;;;;;;1.30;1.20;;;28.40;99.90;;;;;;5012064;28;20923;-76
2022/07/06 09:24:54;;;;;;;1.13;1.05;;;28.40;99.90;;;;;;5013314;28;20195;-77
2022/07/06 09:27:23;;;;;;;1.50;1.23;;;28.60;99.90;;;;;;5019419;28;20226;-75
2022/07/06 09:29:50;;;;;;;1.27;1.17;;;28.80;99.90;;;;;;5013520;28;20226;-77
2022/07/06 09:32:21;;;;;;;2.17;1.40;;;29.00;99.90;;;;;;5011014;28;20310;-78
2022/07/06 09:34:49;;;;;;;2.08;1.13;;;29.00;99.90;;;;;;5013666;28;20606;-76
2022/07/06 09:37:17;;;;;;;1.67;1.17;;;29.00;99.90;;;;;;5011718;28;20204;-77
2022/07/06 09:39:45;;;;;;;1.63;1.35;;;29.10;99.90;;;;;;5014741;28;20198;-76
2022/07/06 09:42:12;;;;;;;1.52;1.30;;;29.30;99.90;;;;;;5017468;28;20297;-77
2022/07/06 09:44:41;;;;;;;1.50;1.15;;;29.40;99.90;;;;;;5010553;28;20200;-76
2022/07/06 09:47:10;;;;;;;1.20;1.10;;;29.40;99.90;;;;;;5011801;28;20396;-76
2022/07/06 09:49:39;;;;;;;2.10;1.25;;;29.40;99.90;;;;;;5012384;28;21416;-77
2022/07/06 09:52:08;;;;;;;2.55;1.10;;;29.40;99.90;;;;;;5013923;28;20242;-76
2022/07/06 09:54:38;;;;;;;3.63;1.40;;;29.50;99.90;;;;;;5011995;28;20226;-75
2022/07/06 09:57:06;;;;;;;1.20;1.13;;;29.40;99.90;;;;;;5014501;28;20293;-76
2022/07/06 09:59:35;;;;;;;1.70;1.30;;;29.20;99.90;;;;;;5008915;28;20382;-77
2022/07/06 10:02:05;;;;;;;1.10;1.00;;;29.50;99.90;;;;;;5011507;28;20717;-77
2022/07/06 10:04:32;;;;;;;1.00;1.00;;;29.50;99.90;;;;;;5011019;28;20762;-74
2022/07/06 10:07:00;;;;;;;1.65;1.10;;;29.50;99.90;;;;;;5014593;28;20211;-75
2022/07/06 10:09:30;;;;;;;3.95;1.27;;;29.50;99.90;;;;;;5012729;28;20218;-76
2022/07/06 10:12:00;;;;;;;1.80;1.27;;;29.50;99.90;;;;;;5007199;28;20223;-76
2022/07/06 10:14:29;;;;;;;1.30;1.17;;;29.50;99.90;;;;;;5011610;28;20269;-76
2022/07/06 10:16:58;;;;;;;1.23;1.13;;;29.40;99.90;;;;;;5013070;28;20223;-75
2022/07/06 10:19:26;;;;;;;1.30;1.20;;;29.70;99.90;;;;;;5012060;28;20204;-77
2022/07/06 10:21:53;;;;;;;2.65;1.20;;;29.70;99.90;;;;;;5012307;28;20235;-77
2022/07/06 10:24:21;;;;;;;1.13;1.02;;;29.70;99.90;;;;;;5014447;28;20202;-76
2022/07/06 10:26:50;;;;;;;1.95;1.20;;;29.70;99.90;;;;;;5010485;28;20220;-76
2022/07/06 10:29:20;;;;;;;2.15;1.40;;;30.10;99.90;;;;;;5010875;28;20314;-76
2022/07/06 10:31:51;;;;;;;1.58;1.20;;;30.50;99.90;;;;;;5012327;28;20278;-77
2022/07/06 10:34:19;;;;;;;2.42;1.08;;;30.90;99.90;;;;;;5011592;28;20594;-77
2022/07/06 10:36:52;;;;;;;1.65;1.02;;;31.00;99.90;;;;;;5010616;28;20309;-77
2022/07/06 10:42:42;;;;;;;2.60;1.00;;;30.80;99.90;;;;;;5012871;28;20222;-77
2022/07/06 10:45:12;;;;;;;1.45;1.10;;;30.90;99.90;;;;;;5014318;28;20219;-77
2022/07/06 10:47:41;;;;;;;1.00;1.00;;;30.90;99.90;;;;;;5011989;28;20202;-77
2022/07/06 10:50:09;;;;;;;0.80;0.80;;;31.00;99.90;;;;;;5015164;28;20235;-76
2022/07/06 10:52:49;;;;;;;1.15;0.80;;;30.70;99.90;;;;;;5014231;28;20448;-77
2022/07/06 10:55:30;;;;;;;1.38;1.08;;;30.50;99.90;;;;;;5014719;28;20231;-76
2022/07/06 10:57:58;;;;;;;1.13;1.00;;;30.70;99.90;;;;;;5013040;28;20204;-75
2022/07/06 11:00:26;;;;;;;2.35;0.85;;;30.90;99.90;;;;;;5007999;28;20223;-76
2022/07/06 11:02:53;;;;;;;4.10;1.10;;;31.10;99.90;;;;;;5012307;28;20569;-74
2022/07/06 11:05:42;;;;;;;0.80;0.80;;;31.20;98.80;;;;;;5015320;28;20224;-76
2022/07/06 11:08:11;;;;;;;1.13;0.80;;;31.30;96.20;;;;;;5007053;28;20199;-75
2022/07/06 11:10:51;;;;;;;0.98;0.98;;;31.30;97.10;;;;;;5014227;28;20346;-75
2022/07/06 11:13:27;;;;;;;0.90;0.80;;;31.30;95.40;;;;;;5017910;28;20218;-76
2022/07/06 11:16:03;;;;;;;0.80;0.80;;;31.40;94.50;;;;;;5016060;28;20223;-77
2022/07/06 11:18:40;;;;;;;0.65;0.65;;;31.50;92.80;;;;;;5018992;28;20638;-77
2022/07/06 11:21:22;;;;;;;0.82;0.60;;;31.50;90.80;;;;;;5013532;28;20218;-76
2022/07/06 11:23:50;;;;;;;0.93;0.75;;;31.50;90.20;;;;;;5013634;28;20205;-77
2022/07/06 11:26:18;;;;;;;0.73;0.63;;;31.50;92.00;;;;;;5015870;28;20219;-76
2022/07/06 11:28:48;;;;;;;1.05;0.77;;;31.70;92.20;;;;;;5015699;28;20195;-76
2022/07/06 11:31:17;;;;;;;0.85;0.75;;;31.90;91.00;;;;;;5014035;28;20309;-77
2022/07/06 11:33:47;;;;;;;1.83;0.60;;;32.00;90.40;;;;;;5014357;28;20200;-76
2022/07/06 11:36:16;;;;;;;0.80;0.73;;;32.20;88.30;;;;;;5016548;28;20281;-76
2022/07/06 11:38:44;;;;;;;0.75;0.75;;;32.30;89.10;;;;;;5013380;28;20202;-75
2022/07/06 11:41:13;;;;;;;0.70;0.70;;;32.40;86.40;;;;;;5013265;28;20223;-75
2022/07/06 11:43:43;;;;;;;0.80;0.80;;;32.30;83.70;;;;;;5018853;28;20205;-76
2022/07/06 11:46:27;;;;;;;4.28;0.70;;;32.30;85.60;;;;;;5012979;28;20656;-76
2022/07/06 11:48:57;;;;;;;0.73;0.65;;;32.40;77.20;;;;;;5010877;28;20200;-75
2022/07/06 11:51:26;;;;;;;0.88;0.70;;;32.50;81.00;;;;;;5015816;28;20624;-75
2022/07/06 11:53:55;;;;;;;0.77;0.70;;;32.50;80.70;;;;;;5011072;28;20218;-75
2022/07/06 11:56:25;;;;;;;0.98;0.60;;;32.40;77.40;;;;;;5012745;28;20268;-75
2022/07/06 11:58:53;;;;;;;0.88;0.65;;;32.20;75.70;;;;;;5012186;28;20203;-77
2022/07/06 12:01:24;;;;;;;1.10;0.95;;;32.10;76.60;;;;;;5009199;28;20231;-76
2022/07/06 12:03:53;;;;;;;1.63;0.90;;;32.00;76.80;;;;;;5010726;28;20701;-77
2022/07/06 12:06:23;;;;;;;0.70;0.70;;;32.00;78.10;;;;;;5010080;28;21497;-77
2022/07/06 12:08:51;;;;;;;0.70;0.70;;;32.10;76.40;;;;;;5020937;28;20206;-77
2022/07/06 12:11:21;;;;;;;0.60;0.60;;;31.70;77.90;;;;;;5015061;28;20255;-78
2022/07/06 12:13:49;;;;;;;0.60;0.60;;;31.20;79.30;;;;;;5016834;28;20203;-77
2022/07/06 12:16:16;;;;;;;2.40;0.80;;;31.00;80.10;;;;;;5016223;28;20504;-78
2022/07/06 12:18:44;;;;;;;1.55;0.70;;;31.10;80.40;;;;;;5018042;28;20207;-77
2022/07/06 12:21:16;;;;;;;0.60;0.60;;;31.30;79.80;;;;;;5021218;28;20227;-76
2022/07/06 12:23:46;;;;;;;0.50;0.50;;;31.20;80.10;;;;;;5020548;28;20208;-77
2022/07/06 12:26:14;;;;;;;0.73;0.57;;;31.00;81.00;;;;;;5020359;28;20616;-76
2022/07/06 12:28:42;;;;;;;0.75;0.75;;;31.40;80.40;;;;;;5017929;28;20209;-77
2022/07/06 12:31:09;;;;;;;1.85;0.68;;;31.90;80.10;;;;;;5018841;28;20858;-76
2022/07/06 12:33:37;;;;;;;0.50;0.50;;;31.90;79.40;;;;;;5018276;28;20203;-78
2022/07/06 12:36:14;;;;;;;1.10;0.70;;;32.00;77.30;;;;;;5022611;28;20222;-75
2022/07/06 12:38:48;;;;;;;0.47;0.47;;;32.30;75.60;;;;;;5009862;28;20619;-77
2022/07/06 12:41:46;;;;;;;0.60;0.60;;;32.70;76.80;;;;;;5020118;28;20237;-77
2022/07/06 12:44:14;;;;;;;0.95;0.85;;;32.90;77.20;;;;;;5019121;28;20721;-77
2022/07/06 12:46:42;;;;;;;0.85;0.60;;;33.10;78.40;;;;;;5018940;28;20214;-76
2022/07/06 12:49:15;;;;;;;0.82;0.70;;;33.20;77.60;;;;;;5025233;28;20214;-77
2022/07/06 12:51:59;;;;;;;0.73;0.73;;;33.20;75.20;;;;;;5012371;28;20227;-76
2022/07/06 12:54:28;;;;;;;0.77;0.70;;;33.10;79.10;;;;;;5015235;28;20200;-76
2022/07/06 12:57:12;;;;;;;0.93;0.68;;;33.10;74.80;;;;;;5020282;28;20228;-76
2022/07/06 12:59:42;;;;;;;0.70;0.70;;;32.90;75.50;;;;;;5010219;28;20491;-76
2022/07/06 13:02:17;;;;;;;0.52;0.40;;;32.60;73.50;;;;;;5013497;28;20244;-75